sensor_id;sensor_type;location;lat;lon;timestamp;P1;durP1;ratioP1;P2;durP2;ratioP2
25155;SDS011;21913;52.456;13.634;2022-12-18T00:02:46;25.58;;;15.60;;
25155;SDS011;21913;52.456;13.634;2022-12-18T00:07:48;24.50;;;14.90;;
25155;SDS011;21913;52.456;13.634;2022-12-18T00:12:49;27.02;;;15.20;;
25155;SDS011;21913;52.456;13.634;2022-12-18T00:17:51;26.27;;;14.35;;
25155;SDS011;21913;52.456;13.634;2022-12-18T00:22:52;24.52;;;14.57;;
25155;SDS011;21913;52.456;13.634;2022-12-18T00:27:54;27.58;;;15.15;;
25155;SDS011;21913;52.456;13.634;2022-12-18T00:32:56;23.98;;;13.93;;
25155;SDS011;21913;52.456;13.634;2022-12-18T00:37:59;22.05;;;13.63;;
25155;SDS011;21913;52.456;13.634;2022-12-18T00:43:01;24.10;;;14.07;;
25155;SDS011;21913;52.456;13.634;2022-12-18T00:48:02;22.48;;;13.20;;
25155;SDS011;21913;52.456;13.634;2022-12-18T00:53:04;22.48;;;12.88;;
25155;SDS011;21913;52.456;13.634;2022-12-18T00:58:05;23.52;;;12.63;;
25155;SDS011;21913;52.456;13.634;2022-12-18T01:03:09;21.98;;;13.68;;
25155;SDS011;21913;52.456;13.634;2022-12-18T01:08:13;22.58;;;13.32;;
25155;SDS011;21913;52.456;13.634;2022-12-18T01:13:17;21.90;;;12.32;;
25155;SDS011;21913;52.456;13.634;2022-12-18T01:18:18;24.13;;;12.10;;
25155;SDS011;21913;52.456;13.634;2022-12-18T01:23:20;19.45;;;11.95;;
25155;SDS011;21913;52.456;13.634;2022-12-18T01:28:21;19.27;;;11.48;;
25155;SDS011;21913;52.456;13.634;2022-12-18T01:33:23;16.88;;;11.05;;
25155;SDS011;21913;52.456;13.634;2022-12-18T01:38:24;18.98;;;11.77;;
25155;SDS011;21913;52.456;13.634;2022-12-18T01:49:00;18.63;;;11.10;;
25155;SDS011;21913;52.456;13.634;2022-12-18T01:54:02;18.67;;;10.88;;
25155;SDS011;21913;52.456;13.634;2022-12-18T01:59:04;18.42;;;10.85;;
25155;SDS011;21913;52.456;13.634;2022-12-18T02:04:28;16.08;;;10.20;;
25155;SDS011;21913;52.456;13.634;2022-12-18T02:09:31;17.85;;;10.55;;
25155;SDS011;21913;52.456;13.634;2022-12-18T02:14:39;16.65;;;9.82;;
25155;SDS011;21913;52.456;13.634;2022-12-18T02:30:27;15.20;;;9.32;;
25155;SDS011;21913;52.456;13.634;2022-12-18T02:35:33;18.42;;;10.50;;
25155;SDS011;21913;52.456;13.634;2022-12-18T02:40:36;15.95;;;9.88;;
25155;SDS011;21913;52.456;13.634;2022-12-18T02:45:46;17.50;;;9.82;;
25155;SDS011;21913;52.456;13.634;2022-12-18T02:56:35;14.85;;;9.13;;
25155;SDS011;21913;52.456;13.634;2022-12-18T03:02:08;14.23;;;9.00;;
25155;SDS011;21913;52.456;13.634;2022-12-18T03:07:23;14.80;;;8.63;;
25155;SDS011;21913;52.456;13.634;2022-12-18T03:12:32;13.63;;;8.55;;
25155;SDS011;21913;52.456;13.634;2022-12-18T03:17:38;14.88;;;8.60;;
25155;SDS011;21913;52.456;13.634;2022-12-18T03:22:46;13.23;;;8.40;;
25155;SDS011;21913;52.456;13.634;2022-12-18T03:27:51;14.32;;;8.38;;
25155;SDS011;21913;52.456;13.634;2022-12-18T03:33:02;14.65;;;8.60;;
25155;SDS011;21913;52.456;13.634;2022-12-18T03:38:15;12.35;;;8.13;;
25155;SDS011;21913;52.456;13.634;2022-12-18T03:48:47;12.77;;;7.80;;
25155;SDS011;21913;52.456;13.634;2022-12-18T03:54:19;13.00;;;7.78;;
25155;SDS011;21913;52.456;13.634;2022-12-18T03:59:29;12.85;;;7.55;;
25155;SDS011;21913;52.456;13.634;2022-12-18T04:04:34;13.52;;;8.00;;
25155;SDS011;21913;52.456;13.634;2022-12-18T04:09:39;11.23;;;6.97;;
25155;SDS011;21913;52.456;13.634;2022-12-18T04:14:42;13.23;;;7.32;;
25155;SDS011;21913;52.456;13.634;2022-12-18T04:19:44;13.02;;;7.60;;
25155;SDS011;21913;52.456;13.634;2022-12-18T04:24:45;11.50;;;6.97;;
25155;SDS011;21913;52.456;13.634;2022-12-18T04:29:58;12.80;;;7.35;;
25155;SDS011;21913;52.456;13.634;2022-12-18T04:35:00;12.25;;;6.90;;
25155;SDS011;21913;52.456;13.634;2022-12-18T04:40:02;9.48;;;6.68;;
25155;SDS011;21913;52.456;13.634;2022-12-18T04:45:12;11.48;;;6.93;;
25155;SDS011;21913;52.456;13.634;2022-12-18T04:50:13;10.90;;;6.82;;
25155;SDS011;21913;52.456;13.634;2022-12-18T04:55:15;9.82;;;6.53;;
25155;SDS011;21913;52.456;13.634;2022-12-18T05:00:16;10.75;;;7.03;;
25155;SDS011;21913;52.456;13.634;2022-12-18T05:05:18;9.43;;;6.22;;
25155;SDS011;21913;52.456;13.634;2022-12-18T05:10:20;10.32;;;6.60;;
25155;SDS011;21913;52.456;13.634;2022-12-18T05:15:21;10.05;;;6.03;;
25155;SDS011;21913;52.456;13.634;2022-12-18T05:20:23;10.50;;;6.40;;
25155;SDS011;21913;52.456;13.634;2022-12-18T05:25:25;9.93;;;6.10;;
25155;SDS011;21913;52.456;13.634;2022-12-18T05:30:26;10.63;;;6.00;;
25155;SDS011;21913;52.456;13.634;2022-12-18T05:35:28;9.98;;;6.00;;
25155;SDS011;21913;52.456;13.634;2022-12-18T05:40:29;11.38;;;6.18;;
25155;SDS011;21913;52.456;13.634;2022-12-18T05:45:31;9.25;;;5.57;;
25155;SDS011;21913;52.456;13.634;2022-12-18T05:50:35;14.15;;;6.10;;
25155;SDS011;21913;52.456;13.634;2022-12-18T05:55:39;8.60;;;5.63;;
25155;SDS011;21913;52.456;13.634;2022-12-18T06:00:43;8.95;;;5.40;;
25155;SDS011;21913;52.456;13.634;2022-12-18T06:05:46;12.02;;;5.82;;
25155;SDS011;21913;52.456;13.634;2022-12-18T06:10:51;9.40;;;5.75;;
25155;SDS011;21913;52.456;13.634;2022-12-18T06:15:53;8.75;;;5.47;;
25155;SDS011;21913;52.456;13.634;2022-12-18T06:20:55;11.13;;;5.35;;
25155;SDS011;21913;52.456;13.634;2022-12-18T06:25:58;9.73;;;5.55;;
25155;SDS011;21913;52.456;13.634;2022-12-18T06:30:59;11.95;;;5.47;;
25155;SDS011;21913;52.456;13.634;2022-12-18T06:36:10;8.50;;;5.28;;
25155;SDS011;21913;52.456;13.634;2022-12-18T06:41:14;10.23;;;5.00;;
25155;SDS011;21913;52.456;13.634;2022-12-18T06:46:17;8.98;;;5.10;;
25155;SDS011;21913;52.456;13.634;2022-12-18T06:51:19;9.98;;;5.35;;
25155;SDS011;21913;52.456;13.634;2022-12-18T06:56:22;7.55;;;4.80;;
25155;SDS011;21913;52.456;13.634;2022-12-18T07:01:24;6.82;;;4.85;;
25155;SDS011;21913;52.456;13.634;2022-12-18T07:06:25;7.28;;;4.50;;
25155;SDS011;21913;52.456;13.634;2022-12-18T07:11:27;8.63;;;4.70;;
25155;SDS011;21913;52.456;13.634;2022-12-18T07:16:28;8.18;;;5.10;;
25155;SDS011;21913;52.456;13.634;2022-12-18T07:21:30;7.78;;;4.80;;
25155;SDS011;21913;52.456;13.634;2022-12-18T07:26:31;8.65;;;5.03;;
25155;SDS011;21913;52.456;13.634;2022-12-18T07:31:33;7.60;;;4.78;;
25155;SDS011;21913;52.456;13.634;2022-12-18T07:36:35;7.43;;;4.70;;
25155;SDS011;21913;52.456;13.634;2022-12-18T07:41:36;6.32;;;4.32;;
25155;SDS011;21913;52.456;13.634;2022-12-18T07:46:42;7.68;;;4.40;;
25155;SDS011;21913;52.456;13.634;2022-12-18T07:51:44;6.80;;;4.18;;
25155;SDS011;21913;52.456;13.634;2022-12-18T07:56:45;6.57;;;4.53;;
25155;SDS011;21913;52.456;13.634;2022-12-18T08:01:47;6.85;;;4.25;;
25155;SDS011;21913;52.456;13.634;2022-12-18T08:06:48;10.05;;;4.45;;
25155;SDS011;21913;52.456;13.634;2022-12-18T08:11:50;7.30;;;4.28;;
25155;SDS011;21913;52.456;13.634;2022-12-18T08:16:52;6.35;;;4.32;;
25155;SDS011;21913;52.456;13.634;2022-12-18T08:21:54;6.22;;;4.13;;
25155;SDS011;21913;52.456;13.634;2022-12-18T08:26:55;7.03;;;4.28;;
25155;SDS011;21913;52.456;13.634;2022-12-18T08:32:13;6.15;;;4.05;;
25155;SDS011;21913;52.456;13.634;2022-12-18T08:37:15;7.72;;;4.32;;
25155;SDS011;21913;52.456;13.634;2022-12-18T08:42:16;7.15;;;4.28;;
25155;SDS011;21913;52.456;13.634;2022-12-18T08:47:18;8.65;;;4.40;;
25155;SDS011;21913;52.456;13.634;2022-12-18T08:52:19;7.65;;;4.47;;
25155;SDS011;21913;52.456;13.634;2022-12-18T08:57:21;6.45;;;3.95;;
25155;SDS011;21913;52.456;13.634;2022-12-18T09:02:22;5.70;;;3.83;;
25155;SDS011;21913;52.456;13.634;2022-12-18T09:07:24;5.55;;;3.88;;
25155;SDS011;21913;52.456;13.634;2022-12-18T09:12:25;9.23;;;4.20;;
25155;SDS011;21913;52.456;13.634;2022-12-18T09:17:27;6.70;;;4.03;;
25155;SDS011;21913;52.456;13.634;2022-12-18T09:22:28;7.13;;;4.35;;
25155;SDS011;21913;52.456;13.634;2022-12-18T09:27:30;8.02;;;4.35;;
25155;SDS011;21913;52.456;13.634;2022-12-18T09:32:31;7.05;;;4.25;;
25155;SDS011;21913;52.456;13.634;2022-12-18T09:37:32;5.50;;;3.70;;
25155;SDS011;21913;52.456;13.634;2022-12-18T09:42:34;6.72;;;4.20;;
25155;SDS011;21913;52.456;13.634;2022-12-18T09:47:36;6.60;;;3.92;;
25155;SDS011;21913;52.456;13.634;2022-12-18T09:52:41;5.47;;;3.85;;
25155;SDS011;21913;52.456;13.634;2022-12-18T09:57:47;5.20;;;3.75;;
25155;SDS011;21913;52.456;13.634;2022-12-18T10:02:59;6.30;;;3.80;;
25155;SDS011;21913;52.456;13.634;2022-12-18T10:13:45;7.32;;;3.97;;
25155;SDS011;21913;52.456;13.634;2022-12-18T10:29:27;7.95;;;3.67;;
25155;SDS011;21913;52.456;13.634;2022-12-18T10:34:29;8.95;;;4.13;;
25155;SDS011;21913;52.456;13.634;2022-12-18T10:39:30;6.40;;;3.72;;
25155;SDS011;21913;52.456;13.634;2022-12-18T10:44:32;5.22;;;3.55;;
25155;SDS011;21913;52.456;13.634;2022-12-18T10:49:33;5.93;;;3.88;;
25155;SDS011;21913;52.456;13.634;2022-12-18T10:54:36;5.70;;;3.70;;
25155;SDS011;21913;52.456;13.634;2022-12-18T10:59:49;6.60;;;4.10;;
25155;SDS011;21913;52.456;13.634;2022-12-18T11:04:53;6.43;;;3.80;;
25155;SDS011;21913;52.456;13.634;2022-12-18T11:10:00;5.85;;;3.63;;
25155;SDS011;21913;52.456;13.634;2022-12-18T11:15:02;5.93;;;3.90;;
25155;SDS011;21913;52.456;13.634;2022-12-18T11:20:04;6.47;;;3.63;;
25155;SDS011;21913;52.456;13.634;2022-12-18T11:25:27;6.18;;;3.42;;
25155;SDS011;21913;52.456;13.634;2022-12-18T11:30:32;5.30;;;3.45;;
25155;SDS011;21913;52.456;13.634;2022-12-18T11:40:42;4.45;;;3.40;;
25155;SDS011;21913;52.456;13.634;2022-12-18T11:45:48;5.25;;;3.50;;
25155;SDS011;21913;52.456;13.634;2022-12-18T11:50:57;6.90;;;3.30;;
25155;SDS011;21913;52.456;13.634;2022-12-18T11:56:08;5.50;;;3.30;;
25155;SDS011;21913;52.456;13.634;2022-12-18T12:28:28;6.63;;;3.58;;
25155;SDS011;21913;52.456;13.634;2022-12-18T12:33:40;6.85;;;4.40;;
25155;SDS011;21913;52.456;13.634;2022-12-18T12:38:54;8.70;;;4.65;;
25155;SDS011;21913;52.456;13.634;2022-12-18T12:44:00;10.93;;;4.45;;
25155;SDS011;21913;52.456;13.634;2022-12-18T12:49:12;7.55;;;4.05;;
25155;SDS011;21913;52.456;13.634;2022-12-18T12:54:21;8.65;;;3.88;;
25155;SDS011;21913;52.456;13.634;2022-12-18T13:04:56;6.68;;;4.00;;
25155;SDS011;21913;52.456;13.634;2022-12-18T13:15:30;10.48;;;3.80;;
25155;SDS011;21913;52.456;13.634;2022-12-18T13:20:43;5.75;;;3.53;;
25155;SDS011;21913;52.456;13.634;2022-12-18T13:25:53;6.97;;;3.83;;
25155;SDS011;21913;52.456;13.634;2022-12-18T13:30:56;6.00;;;3.60;;
25155;SDS011;21913;52.456;13.634;2022-12-18T13:36:15;6.40;;;3.70;;
25155;SDS011;21913;52.456;13.634;2022-12-18T13:41:27;7.55;;;3.67;;
25155;SDS011;21913;52.456;13.634;2022-12-18T13:46:30;7.68;;;4.90;;
25155;SDS011;21913;52.456;13.634;2022-12-18T13:51:47;9.50;;;5.13;;
25155;SDS011;21913;52.456;13.634;2022-12-18T13:56:51;9.55;;;5.55;;
25155;SDS011;21913;52.456;13.634;2022-12-18T14:01:54;8.45;;;5.25;;
25155;SDS011;21913;52.456;13.634;2022-12-18T14:07:07;10.95;;;5.15;;
25155;SDS011;21913;52.456;13.634;2022-12-18T14:12:31;12.35;;;5.07;;
25155;SDS011;21913;52.456;13.634;2022-12-18T14:17:36;8.98;;;4.70;;
25155;SDS011;21913;52.456;13.634;2022-12-18T14:22:37;7.50;;;4.40;;
25155;SDS011;21913;52.456;13.634;2022-12-18T14:27:45;8.55;;;4.75;;
25155;SDS011;21913;52.456;13.634;2022-12-18T14:43:36;6.65;;;4.30;;
25155;SDS011;21913;52.456;13.634;2022-12-18T14:48:40;8.90;;;3.88;;
25155;SDS011;21913;52.456;13.634;2022-12-18T14:59:00;6.45;;;3.83;;
25155;SDS011;21913;52.456;13.634;2022-12-18T15:04:18;7.60;;;4.15;;
25155;SDS011;21913;52.456;13.634;2022-12-18T15:09:26;6.40;;;3.80;;
25155;SDS011;21913;52.456;13.634;2022-12-18T15:24:36;6.47;;;4.00;;
25155;SDS011;21913;52.456;13.634;2022-12-18T15:29:38;5.72;;;3.65;;
25155;SDS011;21913;52.456;13.634;2022-12-18T15:34:39;5.45;;;3.83;;
25155;SDS011;21913;52.456;13.634;2022-12-18T15:39:41;7.20;;;3.78;;
25155;SDS011;21913;52.456;13.634;2022-12-18T15:44:43;8.77;;;3.67;;
25155;SDS011;21913;52.456;13.634;2022-12-18T15:49:44;7.32;;;3.80;;
25155;SDS011;21913;52.456;13.634;2022-12-18T15:54:46;8.00;;;3.88;;
25155;SDS011;21913;52.456;13.634;2022-12-18T15:59:47;6.90;;;3.50;;
25155;SDS011;21913;52.456;13.634;2022-12-18T16:04:50;5.85;;;3.63;;
25155;SDS011;21913;52.456;13.634;2022-12-18T16:09:53;6.45;;;3.83;;
25155;SDS011;21913;52.456;13.634;2022-12-18T16:14:54;5.88;;;3.40;;
25155;SDS011;21913;52.456;13.634;2022-12-18T16:19:56;6.22;;;3.47;;
25155;SDS011;21913;52.456;13.634;2022-12-18T16:24:57;8.15;;;3.80;;
25155;SDS011;21913;52.456;13.634;2022-12-18T16:29:59;7.65;;;4.18;;
25155;SDS011;21913;52.456;13.634;2022-12-18T16:35:00;5.38;;;3.45;;
25155;SDS011;21913;52.456;13.634;2022-12-18T16:40:02;8.00;;;3.75;;
25155;SDS011;21913;52.456;13.634;2022-12-18T16:45:04;6.90;;;3.80;;
25155;SDS011;21913;52.456;13.634;2022-12-18T16:50:07;7.28;;;4.05;;
25155;SDS011;21913;52.456;13.634;2022-12-18T16:55:09;7.72;;;3.72;;
25155;SDS011;21913;52.456;13.634;2022-12-18T17:00:11;5.88;;;3.97;;
25155;SDS011;21913;52.456;13.634;2022-12-18T17:05:13;9.30;;;3.65;;
25155;SDS011;21913;52.456;13.634;2022-12-18T17:10:15;7.78;;;3.70;;
25155;SDS011;21913;52.456;13.634;2022-12-18T17:15:16;5.45;;;3.80;;
25155;SDS011;21913;52.456;13.634;2022-12-18T17:20:17;10.82;;;6.05;;
25155;SDS011;21913;52.456;13.634;2022-12-18T17:25:19;13.93;;;7.18;;
25155;SDS011;21913;52.456;13.634;2022-12-18T17:30:20;11.52;;;6.50;;
25155;SDS011;21913;52.456;13.634;2022-12-18T17:35:22;10.75;;;6.40;;
25155;SDS011;21913;52.456;13.634;2022-12-18T17:40:23;12.00;;;6.13;;
25155;SDS011;21913;52.456;13.634;2022-12-18T17:45:25;11.95;;;6.55;;
25155;SDS011;21913;52.456;13.634;2022-12-18T17:50:27;9.95;;;6.32;;
25155;SDS011;21913;52.456;13.634;2022-12-18T17:55:28;12.40;;;6.80;;
25155;SDS011;21913;52.456;13.634;2022-12-18T18:00:30;12.75;;;6.20;;
25155;SDS011;21913;52.456;13.634;2022-12-18T18:05:32;9.55;;;5.78;;
25155;SDS011;21913;52.456;13.634;2022-12-18T18:10:36;9.90;;;5.70;;
25155;SDS011;21913;52.456;13.634;2022-12-18T18:15:40;9.25;;;5.68;;
25155;SDS011;21913;52.456;13.634;2022-12-18T18:20:41;9.57;;;5.95;;
25155;SDS011;21913;52.456;13.634;2022-12-18T18:25:43;8.80;;;5.53;;
25155;SDS011;21913;52.456;13.634;2022-12-18T18:30:44;9.43;;;5.65;;
25155;SDS011;21913;52.456;13.634;2022-12-18T18:35:45;11.02;;;6.10;;
25155;SDS011;21913;52.456;13.634;2022-12-18T18:41:01;9.20;;;5.65;;
25155;SDS011;21913;52.456;13.634;2022-12-18T18:46:04;9.73;;;5.50;;
25155;SDS011;21913;52.456;13.634;2022-12-18T18:51:12;9.50;;;5.38;;
25155;SDS011;21913;52.456;13.634;2022-12-18T18:56:17;8.63;;;5.20;;
25155;SDS011;21913;52.456;13.634;2022-12-18T19:01:40;9.20;;;5.22;;
25155;SDS011;21913;52.456;13.634;2022-12-18T19:06:42;8.20;;;5.28;;
25155;SDS011;21913;52.456;13.634;2022-12-18T19:11:43;8.73;;;5.13;;
25155;SDS011;21913;52.456;13.634;2022-12-18T19:16:45;10.70;;;5.60;;
25155;SDS011;21913;52.456;13.634;2022-12-18T19:21:46;9.63;;;5.50;;
25155;SDS011;21913;52.456;13.634;2022-12-18T19:26:48;10.95;;;5.18;;
25155;SDS011;21913;52.456;13.634;2022-12-18T19:31:49;9.98;;;5.60;;
25155;SDS011;21913;52.456;13.634;2022-12-18T19:36:51;8.20;;;5.03;;
25155;SDS011;21913;52.456;13.634;2022-12-18T19:41:55;9.45;;;5.57;;
25155;SDS011;21913;52.456;13.634;2022-12-18T19:46:57;10.20;;;5.80;;
25155;SDS011;21913;52.456;13.634;2022-12-18T19:52:00;9.30;;;5.38;;
25155;SDS011;21913;52.456;13.634;2022-12-18T19:57:01;10.63;;;5.68;;
25155;SDS011;21913;52.456;13.634;2022-12-18T20:02:03;9.55;;;5.70;;
25155;SDS011;21913;52.456;13.634;2022-12-18T20:07:04;11.02;;;5.30;;
25155;SDS011;21913;52.456;13.634;2022-12-18T20:12:06;9.88;;;5.00;;
25155;SDS011;21913;52.456;13.634;2022-12-18T20:17:07;8.65;;;5.35;;
25155;SDS011;21913;52.456;13.634;2022-12-18T20:22:09;9.02;;;5.03;;
25155;SDS011;21913;52.456;13.634;2022-12-18T20:27:10;7.97;;;5.13;;
25155;SDS011;21913;52.456;13.634;2022-12-18T20:32:14;8.35;;;5.22;;
25155;SDS011;21913;52.456;13.634;2022-12-18T20:37:16;9.60;;;5.50;;
25155;SDS011;21913;52.456;13.634;2022-12-18T20:42:17;10.05;;;5.47;;
25155;SDS011;21913;52.456;13.634;2022-12-18T20:47:19;7.57;;;5.18;;
25155;SDS011;21913;52.456;13.634;2022-12-18T20:52:21;9.32;;;5.78;;
25155;SDS011;21913;52.456;13.634;2022-12-18T20:57:22;10.23;;;5.80;;
25155;SDS011;21913;52.456;13.634;2022-12-18T21:02:24;9.40;;;5.97;;
25155;SDS011;21913;52.456;13.634;2022-12-18T21:07:26;9.43;;;5.43;;
25155;SDS011;21913;52.456;13.634;2022-12-18T21:12:27;11.32;;;6.03;;
25155;SDS011;21913;52.456;13.634;2022-12-18T21:17:29;9.43;;;5.57;;
25155;SDS011;21913;52.456;13.634;2022-12-18T21:22:30;8.20;;;5.35;;
25155;SDS011;21913;52.456;13.634;2022-12-18T21:27:34;9.50;;;5.88;;
25155;SDS011;21913;52.456;13.634;2022-12-18T21:32:36;10.80;;;5.57;;
25155;SDS011;21913;52.456;13.634;2022-12-18T21:37:37;9.45;;;5.50;;
25155;SDS011;21913;52.456;13.634;2022-12-18T21:42:39;8.90;;;5.30;;
25155;SDS011;21913;52.456;13.634;2022-12-18T21:47:40;9.23;;;5.40;;
25155;SDS011;21913;52.456;13.634;2022-12-18T21:52:42;8.63;;;5.60;;
25155;SDS011;21913;52.456;13.634;2022-12-18T21:57:43;9.35;;;5.75;;
25155;SDS011;21913;52.456;13.634;2022-12-18T22:02:45;8.07;;;5.50;;
25155;SDS011;21913;52.456;13.634;2022-12-18T22:07:47;9.05;;;5.65;;
25155;SDS011;21913;52.456;13.634;2022-12-18T22:12:48;8.70;;;5.65;;
25155;SDS011;21913;52.456;13.634;2022-12-18T22:17:52;7.78;;;5.22;;
25155;SDS011;21913;52.456;13.634;2022-12-18T22:22:53;9.35;;;5.28;;
25155;SDS011;21913;52.456;13.634;2022-12-18T22:27:55;8.82;;;5.80;;
25155;SDS011;21913;52.456;13.634;2022-12-18T22:32:56;9.43;;;5.72;;
25155;SDS011;21913;52.456;13.634;2022-12-18T22:37:58;9.48;;;5.53;;
25155;SDS011;21913;52.456;13.634;2022-12-18T22:43:00;9.10;;;5.57;;
25155;SDS011;21913;52.456;13.634;2022-12-18T22:48:01;9.40;;;5.82;;
25155;SDS011;21913;52.456;13.634;2022-12-18T22:53:03;7.80;;;5.30;;
25155;SDS011;21913;52.456;13.634;2022-12-18T22:58:04;7.80;;;5.38;;
25155;SDS011;21913;52.456;13.634;2022-12-18T23:03:06;10.13;;;5.93;;
25155;SDS011;21913;52.456;13.634;2022-12-18T23:08:07;8.82;;;5.90;;
25155;SDS011;21913;52.456;13.634;2022-12-18T23:13:09;10.23;;;6.15;;
25155;SDS011;21913;52.456;13.634;2022-12-18T23:18:10;9.88;;;6.25;;
25155;SDS011;21913;52.456;13.634;2022-12-18T23:23:12;11.77;;;6.45;;
25155;SDS011;21913;52.456;13.634;2022-12-18T23:28:13;11.68;;;5.72;;
25155;SDS011;21913;52.456;13.634;2022-12-18T23:33:15;9.43;;;6.10;;
25155;SDS011;21913;52.456;13.634;2022-12-18T23:38:16;9.38;;;5.88;;
25155;SDS011;21913;52.456;13.634;2022-12-18T23:43:17;9.05;;;5.70;;
25155;SDS011;21913;52.456;13.634;2022-12-18T23:48:19;10.15;;;5.97;;
25155;SDS011;21913;52.456;13.634;2022-12-18T23:53:21;9.55;;;5.68;;
25155;SDS011;21913;52.456;13.634;2022-12-18T23:58:22;9.45;;;5.63;;
